Time;durP1;ratioP1;P1;durP2;ratioP2;P2;SDS_P1;SDS_P2;PMS_P1;PMS_P2;Temp;Humidity;BMP_temperature;BMP_pressure;BME280_temperature;BME280_humidity;BME280_pressure;Samples;Min_cycle;Max_cycle;Signal;HPM_P1;HPM_P2
2022/06/29 00:00:21;;;;;;;10.35;4.07;;;;;;;18.93;55.08;101160.16;5093498;28;20040;-58
2022/06/29 00:02:47;;;;;;;11.80;3.88;;;;;;;19.01;55.25;101161.00;5092895;28;20044;-57
2022/06/29 00:05:18;;;;;;;12.52;3.65;;;;;;;19.02;56.29;101155.44;5093399;28;20048;-58
2022/06/29 00:07:45;;;;;;;11.10;3.40;;;;;;;19.02;56.04;101155.44;5093013;28;20040;-57
2022/06/29 00:10:13;;;;;;;9.35;3.65;;;;;;;19.03;55.79;101157.13;5091473;28;20489;-58
2022/06/29 00:12:42;;;;;;;10.13;3.58;;;;;;;18.94;56.02;101152.94;5092473;28;20131;-58
2022/06/29 00:15:10;;;;;;;10.98;3.50;;;;;;;18.91;56.47;101158.72;5092720;28;20440;-57
2022/06/29 00:17:37;;;;;;;11.50;3.40;;;;;;;18.88;56.44;101157.25;5095327;28;20051;-59
2022/06/29 00:20:06;;;;;;;15.52;3.70;;;;;;;18.91;56.67;101159.53;5092693;28;20039;-58
2022/06/29 00:22:33;;;;;;;10.25;3.53;;;;;;;18.78;56.09;101154.88;5092415;28;20469;-57
2022/06/29 00:24:59;;;;;;;14.90;3.67;;;;;;;18.80;56.92;101158.19;5092492;28;20085;-58
2022/06/29 00:27:26;;;;;;;10.75;3.42;;;;;;;18.90;57.07;101165.09;5091319;28;20537;-57
2022/06/29 00:29:53;;;;;;;11.73;3.38;;;;;;;18.79;57.41;101161.94;5092632;28;20052;-57
2022/06/29 00:32:20;;;;;;;10.35;3.60;;;;;;;18.57;57.24;101155.81;5092199;28;20401;-58
2022/06/29 00:34:47;;;;;;;11.35;3.60;;;;;;;18.58;57.53;101153.94;5093198;28;20139;-56
2022/06/29 00:37:14;;;;;;;9.57;3.60;;;;;;;18.53;58.48;101157.19;5091537;28;20044;-56
2022/06/29 00:39:40;;;;;;;11.43;3.30;;;;;;;18.53;57.95;101146.47;5092057;28;20040;-58
2022/06/29 00:42:08;;;;;;;11.55;3.75;;;;;;;18.52;58.38;101143.97;5092727;28;20052;-56
2022/06/29 00:44:34;;;;;;;12.63;3.58;;;;;;;18.45;59.09;101148.50;5092619;28;20043;-56
2022/06/29 00:47:04;;;;;;;13.35;4.18;;;;;;;18.44;59.41;101150.31;5092651;28;20048;-56
2022/06/29 00:49:32;;;;;;;11.20;3.63;;;;;;;18.40;58.95;101144.50;5092332;28;20045;-57
2022/06/29 00:52:07;;;;;;;11.05;3.50;;;;;;;18.33;58.71;101142.81;5091782;28;20055;-58
2022/06/29 00:54:56;;;;;;;10.35;3.35;;;;;;;18.32;59.70;101146.50;5092440;28;20080;-57
2022/06/29 00:57:25;;;;;;;11.55;3.60;;;;;;;18.29;59.70;101144.22;5092290;28;20040;-57
2022/06/29 00:59:54;;;;;;;10.73;3.70;;;;;;;18.00;60.29;101143.38;5091991;28;20040;-57
2022/06/29 01:02:24;;;;;;;11.68;3.47;;;;;;;18.14;60.76;101138.97;5091684;28;20063;-57
2022/06/29 01:04:52;;;;;;;10.30;3.55;;;;;;;18.23;59.72;101135.09;5092093;28;20486;-57
2022/06/29 01:07:24;;;;;;;11.82;3.70;;;;;;;18.15;60.07;101140.59;5092294;28;20044;-57
2022/06/29 01:09:50;;;;;;;12.55;3.85;;;;;;;18.16;61.05;101139.59;5092776;28;20048;-57
2022/06/29 01:12:17;;;;;;;11.73;3.72;;;;;;;18.16;61.48;101144.97;5091922;28;20052;-57
2022/06/29 01:14:46;;;;;;;12.07;3.58;;;;;;;17.99;61.18;101139.03;5092319;28;20052;-57
2022/06/29 01:17:14;;;;;;;10.18;3.80;;;;;;;17.97;62.17;101136.56;5090998;28;20078;-57
2022/06/29 01:19:41;;;;;;;10.30;3.90;;;;;;;17.92;62.71;101138.13;5091088;28;20405;-57
2022/06/29 01:22:10;;;;;;;12.30;3.88;;;;;;;17.74;62.70;101136.72;5094937;28;20044;-57
2022/06/29 01:24:38;;;;;;;10.07;3.80;;;;;;;17.57;62.92;101129.94;5078125;28;20127;-57
2022/06/29 01:27:05;;;;;;;10.90;3.78;;;;;;;17.70;63.39;101132.75;5095919;28;20105;-57
2022/06/29 01:29:33;;;;;;;12.02;3.78;;;;;;;17.67;63.93;101135.00;5095766;28;20093;-57
2022/06/29 01:32:00;;;;;;;9.45;3.53;;;;;;;17.66;63.45;101136.81;5095443;28;20048;-56
2022/06/29 01:34:28;;;;;;;12.90;4.15;;;;;;;17.61;64.01;101131.22;5095053;28;20050;-56
2022/06/29 01:36:55;;;;;;;11.55;3.83;;;;;;;17.52;64.14;101130.50;5095485;28;20094;-57
2022/06/29 01:39:22;;;;;;;11.77;4.05;;;;;;;17.52;64.66;101135.88;5095323;28;20050;-57
2022/06/29 01:41:49;;;;;;;11.40;3.85;;;;;;;17.52;64.33;101127.84;5096058;28;20044;-57
2022/06/29 01:44:15;;;;;;;10.55;3.75;;;;;;;17.43;64.60;101137.84;5095565;28;20044;-57
2022/06/29 01:46:42;;;;;;;10.27;3.78;;;;;;;17.41;65.16;101131.84;5093918;28;20040;-57
2022/06/29 01:49:09;;;;;;;10.10;4.22;;;;;;;17.29;66.14;101127.16;5095595;28;20048;-57
2022/06/29 01:51:36;;;;;;;11.20;4.32;;;;;;;17.33;66.24;101128.44;5095236;28;20443;-57
2022/06/29 01:54:03;;;;;;;9.82;3.80;;;;;;;17.25;66.69;101122.16;5093920;28;20052;-57
2022/06/29 01:56:30;;;;;;;12.95;4.07;;;;;;;17.22;66.85;101117.19;5095257;28;20101;-57
2022/06/29 01:58:57;;;;;;;10.98;3.97;;;;;;;17.18;67.45;101117.75;5094752;28;20055;-57
2022/06/29 02:01:23;;;;;;;9.13;3.78;;;;;;;17.16;67.72;101117.13;5095040;28;20054;-57
2022/06/29 02:03:51;;;;;;;12.20;3.97;;;;;;;17.16;67.71;101112.59;5094772;28;20075;-57
2022/06/29 02:06:19;;;;;;;9.20;3.70;;;;;;;17.17;66.79;101110.72;5093422;28;20489;-57
2022/06/29 02:08:46;;;;;;;9.98;4.30;;;;;;;17.17;67.00;101102.69;5094941;28;20040;-57
2022/06/29 02:11:13;;;;;;;9.98;4.25;;;;;;;17.12;67.92;101102.41;5094823;28;20065;-57
2022/06/29 02:13:41;;;;;;;13.32;4.20;;;;;;;17.09;67.31;101103.63;5094531;28;20066;-58
2022/06/29 02:16:08;;;;;;;12.10;4.10;;;;;;;17.01;68.68;101098.41;5095360;28;20386;-57
2022/06/29 02:18:35;;;;;;;11.50;4.63;;;;;;;17.06;69.27;101099.50;5094765;28;20048;-57
2022/06/29 02:21:01;;;;;;;14.65;4.20;;;;;;;16.96;69.69;101103.47;5094558;28;20036;-58
2022/06/29 02:23:28;;;;;;;11.32;4.25;;;;;;;16.91;69.87;101092.47;5085324;28;20044;-56
2022/06/29 02:25:55;;;;;;;13.68;4.57;;;;;;;16.88;70.01;101088.31;5072956;28;20446;-56
2022/06/29 02:28:22;;;;;;;11.35;4.60;;;;;;;16.86;70.35;101085.00;5073202;28;20139;-57
2022/06/29 02:36:22;;;;;;;11.50;4.22;;;;;;;16.91;69.70;101079.09;5094252;28;20055;-56
2022/06/29 02:38:49;;;;;;;10.68;4.25;;;;;;;16.90;70.58;101080.94;5050505;28;20040;-57
2022/06/29 02:41:15;;;;;;;11.90;4.65;;;;;;;16.94;70.71;101084.09;5094373;28;20059;-57
2022/06/29 02:43:42;;;;;;;11.65;4.53;;;;;;;16.87;70.15;101078.63;5093942;28;20501;-57
2022/06/29 02:46:09;;;;;;;13.13;4.85;;;;;;;16.95;70.86;101085.72;5094117;28;20047;-57
2022/06/29 02:48:35;;;;;;;12.38;4.72;;;;;;;16.86;70.40;101083.16;5094310;28;20052;-57
2022/06/29 02:51:02;;;;;;;11.00;4.30;;;;;;;16.92;70.38;101083.41;5094657;28;20050;-57
2022/06/29 02:53:29;;;;;;;12.18;4.05;;;;;;;16.88;70.63;101091.00;5093865;28;20042;-57
2022/06/29 02:55:56;;;;;;;12.95;4.70;;;;;;;16.89;70.65;101090.00;5094009;28;20052;-57
2022/06/29 02:58:22;;;;;;;14.00;4.03;;;;;;;16.89;70.88;101088.13;5093918;28;20040;-56
2022/06/29 03:00:49;;;;;;;9.75;4.10;;;;;;;16.79;71.31;101084.03;5093558;28;20048;-57
2022/06/29 03:03:16;;;;;;;11.55;4.20;;;;;;;16.77;72.10;101084.25;5093967;28;20053;-57
2022/06/29 03:05:43;;;;;;;10.20;4.50;;;;;;;16.73;72.37;101077.59;5093478;28;20052;-56
2022/06/29 03:08:09;;;;;;;9.35;4.38;;;;;;;16.72;72.57;101078.63;5094580;28;20048;-56
2022/06/29 03:10:36;;;;;;;14.68;4.55;;;;;;;16.77;72.17;101078.91;5093593;28;20072;-57
2022/06/29 03:13:03;;;;;;;9.90;4.50;;;;;;;16.72;72.49;101077.78;5093683;28;20076;-57
2022/06/29 03:15:30;;;;;;;10.10;4.30;;;;;;;16.68;72.56;101080.84;5093547;28;20040;-56
2022/06/29 03:17:56;;;;;;;10.52;4.22;;;;;;;16.61;73.03;101079.09;5093292;28;20068;-57
2022/06/29 03:20:24;;;;;;;10.02;4.25;;;;;;;16.56;72.92;101076.97;5093395;28;20059;-56
2022/06/29 03:22:51;;;;;;;11.02;4.45;;;;;;;16.65;72.54;101070.50;5090632;28;20064;-56
2022/06/29 03:25:18;;;;;;;11.40;4.13;;;;;;;16.67;73.04;101068.47;5088239;28;20389;-57
2022/06/29 03:27:45;;;;;;;11.35;4.32;;;;;;;16.68;72.71;101064.78;5093675;28;20089;-57
2022/06/29 03:30:12;;;;;;;13.25;4.47;;;;;;;16.69;73.24;101063.75;5092492;28;20047;-57
2022/06/29 03:32:38;;;;;;;9.52;5.00;;;;;;;16.72;73.21;101064.38;5093414;28;20043;-57
2022/06/29 03:35:06;;;;;;;10.40;4.55;;;;;;;16.68;72.69;101058.56;5092290;28;20555;-57
2022/06/29 03:37:34;;;;;;;9.00;4.20;;;;;;;16.70;72.53;101057.38;5093137;28;20046;-56
2022/06/29 03:40:01;;;;;;;12.75;4.72;;;;;;;16.73;72.46;101058.03;5094107;28;20044;-58
2022/06/29 03:42:28;;;;;;;13.25;4.80;;;;;;;16.71;72.44;101058.19;5108161;28;20097;-57
2022/06/29 03:44:55;;;;;;;11.00;4.57;;;;;;;16.73;72.26;101058.84;5113306;28;20386;-57
2022/06/29 03:47:22;;;;;;;9.98;4.28;;;;;;;16.77;72.13;101057.47;5113152;28;20050;-57
2022/06/29 03:49:49;;;;;;;17.38;4.63;;;;;;;16.74;70.94;101057.00;5113501;28;20078;-57
2022/06/29 03:52:17;;;;;;;9.73;4.05;;;;;;;16.79;71.33;101051.91;5113546;28;20139;-58
2022/06/29 03:54:43;;;;;;;10.98;4.65;;;;;;;16.74;71.32;101051.66;5113373;28;20059;-57
2022/06/29 03:57:10;;;;;;;12.27;4.35;;;;;;;16.73;71.65;101048.13;5113131;28;20059;-57
2022/06/29 03:59:37;;;;;;;10.82;4.07;;;;;;;16.75;71.39;101051.44;5112260;28;20040;-57
2022/06/29 04:02:03;;;;;;;10.82;4.38;;;;;;;16.72;70.69;101040.28;5113065;28;20036;-57
2022/06/29 04:04:30;;;;;;;12.65;4.38;;;;;;;16.73;69.95;101037.41;5112787;28;20096;-57
2022/06/29 04:06:57;;;;;;;11.65;4.25;;;;;;;16.73;69.80;101037.41;5113425;28;20039;-57
2022/06/29 04:09:24;;;;;;;10.52;4.55;;;;;;;16.76;69.83;101036.22;5113184;28;20548;-57
2022/06/29 04:11:52;;;;;;;11.38;5.35;;;;;;;16.80;69.74;101035.66;5113103;28;20044;-57
2022/06/29 04:14:23;;;;;;;12.35;5.50;;;;;;;16.81;70.14;101039.19;5112623;28;20146;-56
2022/06/29 04:16:51;;;;;;;12.07;6.40;;;;;;;16.81;69.98;101044.53;5112242;28;20128;-57
2022/06/29 04:19:18;;;;;;;11.80;5.20;;;;;;;16.79;70.79;101044.72;5093293;28;20044;-57
2022/06/29 04:21:47;;;;;;;13.93;4.85;;;;;;;16.81;71.14;101049.88;5092636;28;20485;-57
2022/06/29 04:24:15;;;;;;;13.23;4.85;;;;;;;16.81;71.48;101050.72;5092365;28;20094;-57
2022/06/29 04:26:42;;;;;;;12.55;4.97;;;;;;;16.82;71.54;101052.34;5092947;28;20086;-57
2022/06/29 04:29:09;;;;;;;11.75;5.25;;;;;;;16.86;71.05;101048.34;5092423;28;20040;-57
2022/06/29 04:31:36;;;;;;;15.15;5.50;;;;;;;16.88;70.04;101042.75;5092634;28;20078;-57
2022/06/29 04:34:03;;;;;;;13.57;4.70;;;;;;;16.77;70.46;101044.06;5111260;28;20044;-57
2022/06/29 04:36:30;;;;;;;10.25;4.20;;;;;;;16.79;71.01;101038.50;5112987;28;20066;-57
2022/06/29 04:38:57;;;;;;;13.20;4.85;;;;;;;16.89;71.68;101039.09;5112497;28;20074;-57
2022/06/29 04:41:24;;;;;;;12.52;4.60;;;;;;;16.97;71.67;101030.94;5111618;28;20053;-57
2022/06/29 04:43:52;;;;;;;13.30;4.55;;;;;;;16.94;71.86;101025.13;5111331;28;20036;-56
2022/06/29 04:46:19;;;;;;;20.23;5.18;;;;;;;16.92;71.95;101036.03;5112734;28;20584;-56
2022/06/29 04:49:03;;;;;;;14.55;5.50;;;;;;;16.91;73.05;101038.91;5112044;28;20501;-57
2022/06/29 04:51:32;;;;;;;12.80;5.88;;;;;;;16.90;72.47;101032.72;5111518;28;20043;-57
2022/06/29 04:53:59;;;;;;;13.18;5.20;;;;;;;16.93;72.17;101026.13;5099160;28;20078;-57
2022/06/29 04:56:30;;;;;;;12.35;5.00;;;;;;;16.97;71.37;101025.59;5095370;28;20052;-57
2022/06/29 04:58:58;;;;;;;11.25;4.50;;;;;;;17.01;71.12;101020.69;5096408;28;20058;-56
2022/06/29 05:01:27;;;;;;;16.45;4.90;;;;;;;17.09;70.97;101023.22;5096217;28;20086;-57
2022/06/29 05:03:55;;;;;;;11.98;4.88;;;;;;;17.11;70.91;101018.50;5095729;28;20044;-57
2022/06/29 05:06:22;;;;;;;14.80;5.45;;;;;;;17.18;72.27;101024.75;5096488;28;20094;-57
2022/06/29 05:08:50;;;;;;;11.45;5.50;;;;;;;17.26;72.57;101018.44;5096158;28;20044;-57
2022/06/29 05:11:18;;;;;;;14.18;5.70;;;;;;;17.29;71.68;101018.06;5095838;28;20047;-57
2022/06/29 05:13:45;;;;;;;15.02;5.18;;;;;;;17.37;71.06;101020.63;5094612;28;20040;-57
2022/06/29 05:16:13;;;;;;;13.73;5.00;;;;;;;17.45;71.09;101017.81;5095853;28;20053;-57
2022/06/29 05:18:40;;;;;;;12.32;4.82;;;;;;;17.55;70.61;101014.78;5095964;28;20055;-57
2022/06/29 05:21:09;;;;;;;11.88;4.63;;;;;;;17.62;69.94;101021.03;5095444;28;20047;-57
2022/06/29 05:23:36;;;;;;;15.43;5.18;;;;;;;17.68;69.73;101027.47;5095987;28;20438;-57
2022/06/29 05:26:03;;;;;;;12.35;4.63;;;;;;;17.77;69.57;101028.16;5095592;28;20075;-57
2022/06/29 05:28:29;;;;;;;16.42;5.10;;;;;;;17.80;69.60;101030.47;5095828;28;20076;-57
2022/06/29 05:30:56;;;;;;;14.90;5.00;;;;;;;17.87;68.93;101039.44;5094719;28;20048;-57
2022/06/29 05:33:23;;;;;;;14.07;4.82;;;;;;;17.94;66.90;101045.69;5094591;28;20040;-57
2022/06/29 05:35:49;;;;;;;10.05;4.68;;;;;;;18.01;67.06;101043.06;5095636;28;20109;-57
2022/06/29 05:38:16;;;;;;;15.35;4.10;;;;;;;18.06;64.66;101039.75;5095627;28;20549;-57
2022/06/29 05:40:44;;;;;;;14.30;4.30;;;;;;;18.12;63.48;101039.81;5095436;28;20489;-57
2022/06/29 05:43:11;;;;;;;14.82;4.30;;;;;;;18.15;64.09;101035.91;5077634;28;20052;-57
2022/06/29 05:45:38;;;;;;;15.55;4.68;;;;;;;18.19;63.89;101039.84;5095465;28;20047;-57
2022/06/29 05:48:05;;;;;;;14.68;4.53;;;;;;;18.22;64.20;101040.28;5095420;28;20393;-57
2022/06/29 05:50:32;;;;;;;13.50;4.85;;;;;;;18.30;64.81;101043.84;5095122;28;20062;-57
2022/06/29 05:52:59;;;;;;;12.05;4.90;;;;;;;18.27;63.60;101038.88;5095287;28;20064;-57
2022/06/29 05:55:26;;;;;;;14.45;5.10;;;;;;;18.34;63.27;101035.19;5094786;28;20116;-57
2022/06/29 05:57:53;;;;;;;14.00;4.68;;;;;;;18.37;64.74;101031.28;5095378;28;20466;-57
2022/06/29 06:00:19;;;;;;;13.30;4.63;;;;;;;18.39;64.29;101026.53;5094730;28;20105;-57
2022/06/29 06:02:50;;;;;;;11.67;4.93;;;;;;;18.47;64.42;101023.69;5094940;28;20089;-57
2022/06/29 06:05:17;;;;;;;10.48;4.82;;;;;;;18.50;64.00;101023.31;5094273;28;20052;-57
2022/06/29 06:07:43;;;;;;;17.20;4.72;;;;;;;18.54;63.31;101019.19;5093154;28;20070;-57
2022/06/29 06:10:10;;;;;;;15.35;4.50;;;;;;;18.61;64.44;101020.03;5094503;28;20375;-57
2022/06/29 06:12:37;;;;;;;11.95;4.70;;;;;;;18.68;64.69;101020.06;5094641;28;20047;-57
2022/06/29 06:15:04;;;;;;;15.68;4.10;;;;;;;18.74;64.74;101019.25;5105283;28;20096;-57
2022/06/29 06:17:32;;;;;;;15.10;4.82;;;;;;;18.78;64.56;101015.13;5108908;28;20036;-57
2022/06/29 06:20:01;;;;;;;15.13;4.70;;;;;;;18.75;62.78;101010.16;5094345;28;20123;-58
2022/06/29 06:22:28;;;;;;;19.25;4.70;;;;;;;18.82;62.81;101012.91;5094706;28;20047;-57
2022/06/29 06:24:56;;;;;;;11.60;4.25;;;;;;;18.92;63.32;101018.75;5074257;28;20048;-57
2022/06/29 06:27:22;;;;;;;14.57;4.22;;;;;;;19.01;62.00;101013.16;5074489;28;20195;-57
2022/06/29 06:29:49;;;;;;;11.55;4.22;;;;;;;19.10;62.04;101007.41;5072855;28;20052;-57
2022/06/29 06:32:16;;;;;;;12.85;4.70;;;;;;;19.19;61.71;100999.94;5088177;28;20092;-57
2022/06/29 06:34:42;;;;;;;10.75;4.32;;;;;;;19.24;60.73;101010.94;5094021;28;20101;-57
2022/06/29 06:37:09;;;;;;;13.63;4.18;;;;;;;19.29;59.28;101011.16;5094403;28;20066;-57
2022/06/29 06:39:35;;;;;;;14.15;4.47;;;;;;;19.39;59.44;101010.72;5094028;28;20056;-57
2022/06/29 06:42:03;;;;;;;14.85;4.35;;;;;;;19.45;60.68;101009.09;5094178;28;20036;-58
2022/06/29 06:44:31;;;;;;;10.85;3.88;;;;;;;19.58;59.82;101011.78;5094098;28;20128;-58
2022/06/29 06:46:59;;;;;;;13.50;3.92;;;;;;;19.61;60.25;101015.91;5094330;28;20105;-58
2022/06/29 06:49:25;;;;;;;14.00;4.03;;;;;;;19.60;57.73;101009.72;5102280;28;20451;-58
2022/06/29 06:51:52;;;;;;;11.27;3.88;;;;;;;19.70;58.28;101017.38;5093530;28;20040;-57
2022/06/29 06:54:19;;;;;;;15.95;3.92;;;;;;;19.74;56.41;101019.47;5094626;28;20113;-58
2022/06/29 06:56:46;;;;;;;18.17;4.05;;;;;;;19.78;57.06;101025.28;5094792;28;20576;-58
2022/06/29 06:59:13;;;;;;;13.77;3.95;;;;;;;19.75;59.22;101028.38;5094650;28;20048;-58
2022/06/29 07:01:40;;;;;;;9.45;3.83;;;;;;;19.85;56.70;101025.28;5094126;28;20048;-57
2022/06/29 07:04:09;;;;;;;16.33;3.95;;;;;;;19.83;57.10;101020.09;5088469;28;20374;-57
2022/06/29 07:06:36;;;;;;;18.48;5.38;;;;;;;19.84;56.84;101020.91;5093066;28;20719;-57
2022/06/29 07:09:03;;;;;;;13.63;3.90;;;;;;;19.87;57.32;101026.72;5086264;28;20087;-58
2022/06/29 07:11:30;;;;;;;11.90;3.60;;;;;;;19.89;56.99;101026.50;5091532;28;20036;-58
2022/06/29 07:13:57;;;;;;;11.88;3.55;;;;;;;19.93;56.71;101025.88;5093410;28;20064;-57
2022/06/29 07:16:23;;;;;;;12.20;3.67;;;;;;;19.93;56.75;101020.47;5094162;28;20051;-57
2022/06/29 07:18:50;;;;;;;11.20;3.65;;;;;;;19.94;57.64;101027.53;5093530;28;20040;-58
2022/06/29 07:21:17;;;;;;;11.25;3.80;;;;;;;19.95;55.75;101020.28;5093909;28;20051;-58
2022/06/29 07:23:44;;;;;;;13.68;3.25;;;;;;;20.01;55.98;101018.59;5094389;28;20093;-58
2022/06/29 07:26:12;;;;;;;10.73;3.50;;;;;;;20.04;56.77;101021.72;5094083;28;20048;-58
2022/06/29 07:28:39;;;;;;;10.52;3.90;;;;;;;20.06;56.53;101016.13;5094172;28;20512;-58
2022/06/29 07:31:07;;;;;;;13.68;3.20;;;;;;;19.98;54.64;101017.19;5093747;28;20124;-58
2022/06/29 07:33:34;;;;;;;10.00;3.25;;;;;;;20.04;54.94;101020.91;5092106;28;20044;-58
2022/06/29 07:36:00;;;;;;;8.25;3.20;;;;;;;20.09;56.29;101010.31;5093474;28;20047;-58
2022/06/29 07:38:27;;;;;;;8.93;3.85;;;;;;;20.11;55.68;101008.25;5093681;28;20044;-57
2022/06/29 07:40:54;;;;;;;10.65;3.40;;;;;;;20.13;55.49;101014.25;5094323;28;20396;-57
2022/06/29 07:43:20;;;;;;;15.20;3.50;;;;;;;20.13;55.31;101015.06;5093555;28;20179;-58
2022/06/29 07:45:47;;;;;;;9.80;3.53;;;;;;;20.12;54.84;101018.81;5093520;28;20050;-57
2022/06/29 07:48:14;;;;;;;7.97;3.25;;;;;;;20.16;54.00;101010.31;5093329;28;20036;-58
2022/06/29 07:50:41;;;;;;;10.30;3.17;;;;;;;20.21;54.89;101016.72;5093632;28;20098;-57
2022/06/29 07:53:07;;;;;;;8.88;3.60;;;;;;;20.33;57.00;101003.41;5093644;28;20044;-57
2022/06/29 07:55:34;;;;;;;12.45;3.92;;;;;;;20.39;53.54;101007.97;5093415;28;20054;-58
2022/06/29 07:58:01;;;;;;;9.10;3.13;;;;;;;20.33;53.34;101006.09;5091401;28;20090;-58
2022/06/29 08:00:28;;;;;;;13.10;3.30;;;;;;;20.41;52.95;101016.66;5085155;28;20048;-57
2022/06/29 08:02:55;;;;;;;11.30;3.45;;;;;;;20.43;53.92;101019.13;5092956;28;20051;-57
2022/06/29 08:05:22;;;;;;;13.13;3.72;;;;;;;20.44;53.19;101012.72;5077975;28;20055;-57
2022/06/29 08:07:49;;;;;;;10.15;3.42;;;;;;;20.52;53.94;101015.19;5092738;28;20032;-58
2022/06/29 08:10:17;;;;;;;10.65;3.30;;;;;;;20.55;54.69;101022.81;5093268;28;20048;-58
2022/06/29 08:12:44;;;;;;;12.35;3.80;;;;;;;20.54;54.75;101015.78;5092687;28;20056;-58
2022/06/29 08:15:11;;;;;;;11.25;3.80;;;;;;;20.42;53.04;101018.31;5087990;28;20119;-57
2022/06/29 08:17:38;;;;;;;13.70;3.80;;;;;;;20.43;51.84;101017.28;5085363;28;20055;-58
2022/06/29 08:20:05;;;;;;;11.27;3.95;;;;;;;20.46;52.55;101014.13;5080356;28;20635;-58
2022/06/29 08:22:32;;;;;;;15.60;7.15;;;;;;;20.53;53.97;101025.72;5081619;28;20055;-58
2022/06/29 08:24:59;;;;;;;9.40;3.70;;;;;;;20.45;53.67;101017.88;5072292;28;20494;-57
2022/06/29 08:27:27;;;;;;;10.18;4.15;;;;;;;20.52;54.44;101021.38;5089894;28;20127;-58
2022/06/29 08:30:11;;;;;;;8.80;3.83;;;;;;;20.54;53.44;101026.56;5091493;28;20124;-57
2022/06/29 08:32:41;;;;;;;13.13;4.05;;;;;;;20.56;54.16;101026.34;5085374;28;20052;-57
2022/06/29 08:35:09;;;;;;;15.75;3.88;;;;;;;20.48;53.18;101025.56;5085981;28;20135;-57
2022/06/29 08:37:37;;;;;;;14.25;4.55;;;;;;;20.59;53.71;101025.91;5085499;28;20482;-58
2022/06/29 08:40:08;;;;;;;13.27;4.22;;;;;;;20.55;54.66;101022.81;5102714;28;20075;-57
2022/06/29 08:42:36;;;;;;;14.75;4.20;;;;;;;20.60;54.37;101017.63;5094363;28;20071;-58
2022/06/29 08:45:06;;;;;;;11.85;4.10;;;;;;;20.60;54.87;101016.78;5089389;28;20101;-58
2022/06/29 08:47:34;;;;;;;13.00;4.13;;;;;;;20.63;53.11;101019.06;5095053;28;20036;-58
2022/06/29 08:50:09;;;;;;;8.38;3.63;;;;;;;20.60;53.74;101016.78;5088353;28;20040;-58
2022/06/29 08:52:38;;;;;;;8.65;3.22;;;;;;;20.62;51.78;101018.25;5091278;28;20055;-58
2022/06/29 08:55:07;;;;;;;8.88;3.20;;;;;;;20.62;52.95;101017.44;5088365;28;20048;-58
2022/06/29 08:57:36;;;;;;;13.73;4.15;;;;;;;20.58;53.04;101016.19;5089816;28;20052;-57
2022/06/29 09:00:04;;;;;;;11.50;3.85;;;;;;;20.61;54.48;101022.00;5087463;28;20131;-57
2022/06/29 09:02:31;;;;;;;11.60;4.30;;;;;;;20.55;54.22;101022.81;5076976;28;20127;-57
2022/06/29 09:04:58;;;;;;;15.60;4.05;;;;;;;20.61;53.94;101026.56;5086570;28;20044;-56
2022/06/29 09:07:26;;;;;;;13.20;4.72;;;;;;;20.62;52.31;101031.72;5087680;28;20044;-58
2022/06/29 09:10:11;;;;;;;13.38;4.28;;;;;;;20.56;53.79;101031.75;5081380;28;20052;-56
2022/06/29 09:12:38;;;;;;;13.52;3.78;;;;;;;20.55;53.63;101030.91;5075117;28;20068;-57
2022/06/29 09:15:07;;;;;;;10.63;4.07;;;;;;;20.55;54.86;101032.78;5078799;28;20109;-57
2022/06/29 09:17:35;;;;;;;9.25;3.90;;;;;;;20.55;53.94;101032.78;5076203;28;20379;-56
2022/06/29 09:20:04;;;;;;;16.35;4.13;;;;;;;20.52;53.93;101034.84;5081282;28;20052;-56
2022/06/29 09:22:52;;;;;;;10.18;4.25;;;;;;;20.62;53.51;101030.91;5082218;28;20051;-56
2022/06/29 09:25:21;;;;;;;12.27;4.82;;;;;;;20.57;53.42;101041.47;5086657;28;20044;-57
2022/06/29 09:27:49;;;;;;;13.82;4.75;;;;;;;20.53;52.36;101043.75;5074829;28;20032;-57
2022/06/29 09:30:26;;;;;;;12.25;4.20;;;;;;;20.49;54.83;101045.22;5094619;28;20072;-57
2022/06/29 09:33:04;;;;;;;11.60;4.15;;;;;;;20.35;55.13;101041.75;5079886;28;20064;-57
2022/06/29 09:35:32;;;;;;;15.13;4.25;;;;;;;20.50;54.29;101041.47;5077151;28;20048;-57
2022/06/29 09:38:19;;;;;;;11.13;4.20;;;;;;;20.64;54.75;101043.13;5073377;28;20124;-57
2022/06/29 09:41:11;;;;;;;15.73;4.03;;;;;;;20.64;54.49;101031.53;5084409;28;20042;-57
2022/06/29 09:43:41;;;;;;;11.60;4.50;;;;;;;20.71;53.77;101035.03;5073318;28;20060;-57
2022/06/29 09:46:09;;;;;;;16.05;4.25;;;;;;;20.67;54.13;101033.81;5094972;28;20048;-57
2022/06/29 09:48:38;;;;;;;15.65;4.90;;;;;;;20.83;53.66;101029.75;5091346;28;20636;-57
2022/06/29 09:51:38;;;;;;;14.20;5.22;;;;;;;20.95;52.88;101025.34;5091874;28;20503;-57
2022/06/29 09:53:59;;;;;;;13.63;4.63;;;;;;;21.25;53.37;101016.69;5091496;28;20036;-57
2022/06/29 09:56:29;;;;;;;13.40;4.55;;;;;;;21.39;52.06;101017.41;5073772;28;20437;-57
2022/06/29 09:58:59;;;;;;;14.48;4.43;;;;;;;21.60;51.00;101019.75;5073787;28;20044;-57
2022/06/29 10:04:14;;;;;;;15.25;4.70;;;;;;;21.97;49.78;101009.03;5091703;28;20105;-57
2022/06/29 10:06:42;;;;;;;12.35;4.05;;;;;;;22.21;49.05;101017.28;5085386;28;20154;-58
2022/06/29 10:09:09;;;;;;;13.57;4.30;;;;;;;22.36;48.39;101019.69;5090284;28;20048;-57
2022/06/29 10:15:26;;;;;;;12.40;3.85;;;;;;;22.51;47.85;101008.47;5078786;28;20040;-58
2022/06/29 10:18:06;;;;;;;10.65;3.95;;;;;;;22.62;48.46;101010.41;5093704;28;20044;-58
2022/06/29 10:20:46;;;;;;;12.88;3.70;;;;;;;22.84;46.81;101012.63;5088479;28;20054;-58
2022/06/29 10:23:50;;;;;;;12.50;3.63;;;;;;;23.02;46.12;101009.88;5093752;28;20063;-58
2022/06/29 10:32:04;;;;;;;11.90;4.07;;;;;;;23.21;45.77;101004.41;5139708;27;20582;-57
2022/06/29 10:37:11;;;;;;;8.80;3.80;;;;;;;23.42;47.89;101003.06;5123194;27;20135;-57
2022/06/29 10:45:19;;;;;;;8.93;3.40;;;;;;;23.58;44.51;100997.78;5061135;28;20052;-57
2022/06/29 10:48:08;;;;;;;10.02;4.05;;;;;;;23.70;44.61;100999.66;5062152;28;20041;-57
2022/06/29 10:50:38;;;;;;;15.50;4.10;;;;;;;23.65;43.41;100997.66;5059640;28;20059;-57
2022/06/29 10:53:11;;;;;;;11.68;3.90;;;;;;;23.80;45.10;100991.81;5065510;28;20045;-57
2022/06/29 10:55:49;;;;;;;13.13;3.75;;;;;;;23.88;43.18;100991.44;5077948;28;20127;-57
2022/06/29 10:58:17;;;;;;;15.73;4.07;;;;;;;23.82;42.94;100992.41;5071399;28;20409;-58
2022/06/29 11:00:45;;;;;;;9.13;3.65;;;;;;;23.82;43.20;100983.47;5071503;28;20044;-58
2022/06/29 11:03:16;;;;;;;13.63;3.92;;;;;;;23.99;43.87;100984.38;5066461;28;20556;-58
2022/06/29 11:15:39;;;;;;;8.85;3.72;;;;;;;25.28;41.43;100966.00;5057892;28;20053;-58
2022/06/29 11:16:56;;;;;;;14.90;3.78;;;;;;;25.44;41.44;100964.34;5053687;28;20059;-56
2022/06/29 11:19:28;;;;;;;12.50;4.15;;;;;;;25.54;41.25;100961.81;5062025;28;20049;-57
2022/06/29 11:22:15;;;;;;;16.00;3.80;;;;;;;25.89;39.48;100957.09;5068539;28;20037;-57
2022/06/29 11:25:00;;;;;;;16.75;3.45;;;;;;;25.86;39.17;100964.69;5067830;28;20053;-57
2022/06/29 11:27:32;;;;;;;9.85;3.85;;;;;;;25.99;40.65;100958.09;5058874;28;20048;-56
2022/06/29 11:29:59;;;;;;;12.27;4.00;;;;;;;25.78;41.39;100948.81;5059730;28;20045;-57
2022/06/29 11:32:36;;;;;;;15.82;4.05;;;;;;;25.72;40.22;100941.66;5054684;28;20080;-58
2022/06/29 11:35:06;;;;;;;12.88;3.83;;;;;;;26.08;40.12;100944.09;5058375;28;20067;-58
2022/06/29 11:37:37;;;;;;;10.77;3.95;;;;;;;26.20;39.68;100942.88;5067900;28;20045;-58
2022/06/29 11:40:04;;;;;;;14.48;4.15;;;;;;;26.55;38.74;100940.81;5047076;28;20037;-57
2022/06/29 11:43:04;;;;;;;13.15;3.50;;;;;;;26.64;37.20;100938.50;5060547;28;20079;-58
2022/06/29 11:45:20;;;;;;;11.00;3.30;;;;;;;26.75;37.78;100935.59;5064130;28;20117;-58
2022/06/29 11:47:51;;;;;;;8.48;3.40;;;;;;;26.87;35.27;100934.59;5035740;28;20043;-58
2022/06/29 11:50:18;;;;;;;9.50;3.83;;;;;;;26.39;38.41;100931.66;5056633;28;20068;-59
2022/06/29 11:52:48;;;;;;;12.45;4.85;;;;;;;26.18;39.40;100927.91;5052192;28;20044;-58
2022/06/29 11:55:14;;;;;;;16.40;3.42;;;;;;;26.31;38.97;100924.78;5052593;28;20037;-57
2022/06/29 11:57:41;;;;;;;15.05;6.30;;;;;;;26.47;39.48;100919.50;5054763;28;20111;-58
2022/06/29 12:00:09;;;;;;;42.92;25.25;;;;;;;26.21;38.72;100909.19;5042630;28;20045;-57